KAAT

Alturas Municipal Airport

Alturas, California, USA
METAR KAAT 152055Z AUTO 32006KT 10SM FEW110 33/09 A3013 RMK AO2 SLP153 T03280089 58009 $
Observed Flight Rules
Jul-15 @ 20:55 UTC (16 minutes ago) Visual Flight Rules
Wind Visibility Clouds
320° at 6 knots 10 miles
  • Few at 11,000' AGL
Temperatures Readings
Current 33°C / 91°F
Dewpoint 9°C / 48°F
Humidity 23%
Altimeter 30.13" Hg
Pressure 1015.3 hPa
Elevation 1331
METAR KAAT 152055Z AUTO 32006KT 10SM FEW110 33/09 A3013 RMK AO2 SLP153 T03280089 58009 $
Observed Flight Rules
Jul-15 @ 20:55 UTC
(16 minutes ago)
VFR
Wind Visibility
320° at 6 knots 10 miles
Clouds
  • Few at 11,000' AGL
Temperature Dewpoint
33°C / 91°F 9°C / 48°F
Humidity Altimeter Pressure
23% 30.13" Hg 1015.3 hPa